Arrow Rock, Missouri
Current Conditions -  °F | °C
As of 2:35 AM on Saturday 25 Oct 2014 (Local Time) from KVER Reporting Station
Broken Clouds Broken Clouds  
Wind Chill: 64°   Ceiling: 4600
Heat Index: 64°   Visibility: 10mi
Dew Point: 60°   Wind: 5mph
Humidity: 87%   Direction: 240°WSW
Pressure: 30"   Gusts: NA
Location:  39.07°N, 92.95°W
Report Text: KVER 250735Z AUTO 24004KT 10SM BKN046 18/16 A3000 RMK AO2 T01800158
Loading
Personal Weather Stations






























Interactive Weather Map New forecast layout! Learn more

10-Day Weather Forecast

Advertisements
Track Severe Weather on mobile